Time;durP1;ratioP1;P1;durP2;ratioP2;P2;SDS_P1;SDS_P2;PMS_P1;PMS_P2;Temp;Humidity;BMP_temperature;BMP_pressure;BME280_temperature;BME280_humidity;BME280_pressure;Samples;Min_cycle;Max_cycle;Signal;HPM_P1;HPM_P2
2022/02/02 00:01:14;;;;;;;5.32;0.90;;;8.10;99.90;;;;;;4979506;28;20030;-89
2022/02/02 00:03:42;;;;;;;2.63;0.90;;;8.10;99.90;;;;;;4979651;28;20087;-88
2022/02/02 00:06:17;;;;;;;6.65;1.00;;;8.10;99.90;;;;;;4979573;28;20030;-89
2022/02/02 00:09:18;;;;;;;5.22;1.30;;;8.10;99.90;;;;;;5011944;28;20177;-89
2022/02/02 00:14:19;;;;;;;3.20;0.80;;;8.10;99.90;;;;;;4996296;28;20040;-88
2022/02/02 00:17:00;;;;;;;3.90;0.98;;;8.10;99.90;;;;;;4995521;28;20072;-90
2022/02/02 00:19:41;;;;;;;3.25;1.38;;;8.10;99.90;;;;;;4995711;28;20041;-89
2022/02/02 00:22:15;;;;;;;9.07;1.35;;;8.10;99.90;;;;;;4994696;28;20023;-90
2022/02/02 00:27:09;;;;;;;6.22;1.00;;;8.10;99.90;;;;;;4996379;28;20030;-90
2022/02/02 00:29:47;;;;;;;2.50;0.77;;;8.10;99.90;;;;;;4995148;28;20138;-90
2022/02/02 00:34:57;;;;;;;2.53;0.82;;;8.10;99.90;;;;;;4996907;28;20072;-88
2022/02/02 00:37:23;;;;;;;2.83;0.88;;;8.00;99.90;;;;;;4994579;28;20030;-88
2022/02/02 00:39:49;;;;;;;2.97;1.00;;;8.10;99.90;;;;;;4994339;28;20026;-88
2022/02/02 00:42:15;;;;;;;0.93;0.77;;;8.00;99.90;;;;;;4994976;28;20052;-88
2022/02/02 00:44:45;;;;;;;3.67;1.00;;;8.10;99.90;;;;;;4995057;28;20042;-88
2022/02/02 00:47:18;;;;;;;1.48;0.80;;;8.10;99.90;;;;;;4995086;28;20125;-89
2022/02/02 00:49:45;;;;;;;2.45;1.00;;;8.10;99.90;;;;;;4995259;28;20034;-88
2022/02/02 00:52:11;;;;;;;1.10;0.80;;;8.00;99.90;;;;;;4995264;28;20054;-89
2022/02/02 00:54:36;;;;;;;1.30;1.02;;;8.00;99.90;;;;;;4994721;28;20395;-89
2022/02/02 00:57:02;;;;;;;2.22;0.93;;;8.10;99.90;;;;;;4994460;28;20026;-89
2022/02/02 00:59:28;;;;;;;2.15;1.25;;;8.00;99.90;;;;;;4994621;28;20072;-90
2022/02/02 01:01:54;;;;;;;2.28;1.40;;;8.00;99.90;;;;;;4994790;28;20045;-89
2022/02/02 01:04:20;;;;;;;3.85;1.55;;;8.00;99.90;;;;;;4978382;28;20038;-90
2022/02/02 01:10:03;;;;;;;1.08;0.85;;;8.00;99.90;;;;;;4987238;28;20471;-89
2022/02/02 01:28:23;;;;;;;2.00;0.52;;;8.00;99.90;;;;;;4995906;28;20089;-91
2022/02/02 01:30:49;;;;;;;0.75;0.30;;;8.00;99.90;;;;;;4994348;28;20026;-92
2022/02/02 01:33:15;;;;;;;0.60;0.40;;;8.00;99.90;;;;;;4994172;28;20038;-91
2022/02/02 01:35:42;;;;;;;0.45;0.30;;;8.10;99.90;;;;;;4994498;28;20038;-91
2022/02/02 01:38:09;;;;;;;1.45;0.50;;;8.10;99.90;;;;;;4994546;28;20062;-91
2022/02/02 01:40:40;;;;;;;0.68;0.35;;;8.10;99.90;;;;;;4994535;28;20022;-93
2022/02/02 01:43:11;;;;;;;2.47;0.85;;;8.10;99.90;;;;;;4994749;28;20070;-92
2022/02/02 01:45:41;;;;;;;3.92;1.20;;;8.10;99.90;;;;;;4994455;28;20037;-93
2022/02/02 01:55:56;;;;;;;6.63;3.15;;;8.30;99.90;;;;;;4995377;28;20032;-91
2022/02/02 02:01:01;;;;;;;5.03;4.18;;;8.40;99.90;;;;;;4995452;28;20050;-91
2022/02/02 02:03:27;;;;;;;5.22;2.63;;;8.50;99.90;;;;;;4993518;28;20031;-93
2022/02/02 02:05:52;;;;;;;3.13;2.03;;;8.50;99.90;;;;;;4993150;28;20032;-91
2022/02/02 02:08:18;;;;;;;3.92;2.42;;;8.50;99.90;;;;;;4993285;28;20061;-91
2022/02/02 02:10:44;;;;;;;8.57;2.28;;;8.60;99.90;;;;;;4993681;28;20018;-91
2022/02/02 02:13:24;;;;;;;3.40;2.00;;;8.60;99.90;;;;;;4993401;28;20057;-92
2022/02/02 02:15:50;;;;;;;3.47;2.15;;;8.60;99.90;;;;;;4996177;28;20054;-90
2022/02/02 02:18:17;;;;;;;3.35;2.53;;;8.60;99.90;;;;;;4999314;28;20044;-91
2022/02/02 02:20:42;;;;;;;2.63;2.33;;;8.60;99.90;;;;;;4997654;28;20130;-90
2022/02/02 02:23:08;;;;;;;2.67;2.22;;;8.60;99.90;;;;;;4993658;28;20491;-93
2022/02/02 02:25:38;;;;;;;11.43;2.22;;;8.70;99.90;;;;;;4993312;28;20023;-92
2022/02/02 02:28:13;;;;;;;6.32;2.80;;;8.70;99.90;;;;;;4993418;28;20464;-93
2022/02/02 02:30:46;;;;;;;3.30;2.72;;;8.70;99.90;;;;;;4993855;28;20039;-93
2022/02/02 02:56:58;;;;;;;9.93;3.53;;;8.70;99.90;;;;;;4998015;28;20040;-91
2022/02/02 03:51:33;;;;;;;4.00;1.60;;;8.70;99.90;;;;;;4975433;28;20062;-92
2022/02/02 03:56:58;;;;;;;3.60;1.92;;;8.80;99.90;;;;;;4984121;28;20042;-93
2022/02/02 04:02:14;;;;;;;3.95;2.05;;;8.70;99.90;;;;;;4985335;28;20029;-94
2022/02/02 04:07:33;;;;;;;2.75;1.60;;;8.70;99.90;;;;;;4987976;28;20041;-93
2022/02/02 04:10:04;;;;;;;2.67;1.30;;;8.70;99.90;;;;;;4986499;28;20029;-94
2022/02/02 04:53:36;;;;;;;3.88;1.20;;;8.70;99.90;;;;;;4976673;28;20041;-94
2022/02/02 04:55:56;;;;;;;2.72;1.40;;;8.70;99.90;;;;;;4976077;28;20034;-94
2022/02/02 05:08:54;;;;;;;11.02;1.98;;;8.70;99.90;;;;;;4977013;28;20388;-93
2022/02/02 05:22:30;;;;;;;5.72;2.03;;;8.70;99.90;;;;;;4975984;28;20112;-93
2022/02/02 05:41:58;;;;;;;4.32;1.77;;;8.70;99.90;;;;;;4975672;28;20151;-94
2022/02/02 05:51:53;;;;;;;6.28;2.08;;;8.60;99.90;;;;;;4976703;28;20018;-94
2022/02/02 05:54:19;;;;;;;6.47;1.80;;;8.70;99.90;;;;;;4976893;28;20107;-93
2022/02/02 05:56:54;;;;;;;6.93;2.13;;;8.60;99.90;;;;;;4976456;28;20070;-92
2022/02/02 05:59:23;;;;;;;7.28;2.92;;;8.60;99.90;;;;;;4980488;28;20043;-92
2022/02/02 06:01:51;;;;;;;8.75;3.33;;;8.60;99.90;;;;;;4989145;28;20034;-90
2022/02/02 06:04:22;;;;;;;7.13;3.47;;;8.60;99.90;;;;;;4981368;28;20030;-92
2022/02/02 06:06:50;;;;;;;9.50;3.65;;;8.60;99.90;;;;;;4976078;28;20027;-93
2022/02/02 06:09:17;;;;;;;4.28;3.20;;;8.60;99.90;;;;;;4974596;28;20109;-93
2022/02/02 06:11:43;;;;;;;9.68;3.17;;;8.60;99.90;;;;;;4974857;28;20030;-93
2022/02/02 06:14:10;;;;;;;8.60;3.70;;;8.60;99.90;;;;;;4974004;28;20428;-93
2022/02/02 06:16:36;;;;;;;9.07;3.25;;;8.60;99.90;;;;;;4974422;28;20055;-94
2022/02/02 06:19:03;;;;;;;7.90;4.05;;;8.60;99.90;;;;;;4974084;28;20113;-95
2022/02/02 06:21:34;;;;;;;3.55;3.08;;;8.60;99.90;;;;;;4981065;28;20027;-93
2022/02/02 06:24:23;;;;;;;7.03;3.45;;;8.60;99.90;;;;;;4978836;28;20026;-93
2022/02/02 06:26:49;;;;;;;12.18;4.57;;;8.60;99.90;;;;;;4978190;28;20027;-91
2022/02/02 06:29:16;;;;;;;10.43;3.83;;;8.60;99.90;;;;;;4977483;28;20178;-94
2022/02/02 06:31:42;;;;;;;8.98;4.00;;;8.60;99.90;;;;;;4977941;28;20031;-94
2022/02/02 06:34:11;;;;;;;6.70;3.50;;;8.50;99.90;;;;;;4978031;28;20038;-93
2022/02/02 06:36:38;;;;;;;7.47;3.58;;;8.50;99.90;;;;;;4978093;28;20105;-94
2022/02/02 06:39:09;;;;;;;9.07;3.33;;;8.50;99.90;;;;;;4978138;28;20039;-92
2022/02/02 06:41:35;;;;;;;6.10;3.33;;;8.50;99.90;;;;;;4979358;28;20063;-93
2022/02/02 06:44:04;;;;;;;5.97;3.25;;;8.50;99.90;;;;;;4990440;28;20073;-93
2022/02/02 06:46:33;;;;;;;7.03;3.50;;;8.50;99.90;;;;;;4978906;28;20034;-92
2022/02/02 06:49:00;;;;;;;12.30;4.28;;;8.50;99.90;;;;;;4978145;28;20511;-93
2022/02/02 06:51:56;;;;;;;13.35;3.90;;;8.50;99.90;;;;;;4978020;28;20027;-93
2022/02/02 06:54:41;;;;;;;10.68;3.42;;;8.50;99.90;;;;;;4978655;28;20097;-93
2022/02/02 06:57:16;;;;;;;8.00;2.67;;;8.50;99.90;;;;;;4978363;28;20019;-93
2022/02/02 07:10:17;;;;;;;10.00;2.20;;;8.50;99.90;;;;;;4989770;28;20225;-95
2022/02/02 07:15:26;;;;;;;4.63;2.13;;;8.40;99.90;;;;;;4986593;28;20033;-94
2022/02/02 07:23:35;;;;;;;4.20;2.30;;;8.40;99.90;;;;;;4988990;28;20038;-93
2022/02/02 07:28:41;;;;;;;6.63;2.95;;;8.40;99.90;;;;;;4987409;28;20054;-92
2022/02/02 07:33:59;;;;;;;4.18;1.85;;;8.40;99.90;;;;;;4989942;28;20041;-95
2022/02/02 07:36:38;;;;;;;8.65;2.42;;;8.40;99.90;;;;;;4989621;28;20030;-94
2022/02/02 07:39:12;;;;;;;6.65;2.30;;;8.40;99.90;;;;;;4987949;28;20034;-94
2022/02/02 07:41:47;;;;;;;5.63;2.30;;;8.40;99.90;;;;;;4989048;28;20026;-92
2022/02/02 07:44:19;;;;;;;5.20;1.60;;;8.40;99.90;;;;;;4988683;28;20027;-94
2022/02/02 07:46:53;;;;;;;6.10;1.80;;;8.40;99.90;;;;;;4991429;28;20088;-93
2022/02/02 07:49:32;;;;;;;4.50;1.90;;;8.40;99.90;;;;;;5015956;28;20058;-93
2022/02/02 07:51:58;;;;;;;5.65;1.55;;;8.40;99.90;;;;;;4998534;28;20041;-94
2022/02/02 07:54:30;;;;;;;7.88;1.75;;;8.40;99.90;;;;;;4996536;28;20029;-95
2022/02/02 07:56:57;;;;;;;5.10;2.15;;;8.40;99.90;;;;;;4997831;28;20503;-94
2022/02/02 08:01:53;;;;;;;6.05;1.90;;;8.30;99.90;;;;;;4978733;28;20026;-93
2022/02/02 08:04:22;;;;;;;6.82;2.03;;;8.40;99.90;;;;;;4981894;28;20030;-93
2022/02/02 08:06:54;;;;;;;7.35;2.47;;;8.30;99.90;;;;;;4984114;28;20073;-93
2022/02/02 08:09:33;;;;;;;5.43;1.63;;;8.40;99.90;;;;;;4996468;28;20014;-96
2022/02/02 08:12:00;;;;;;;7.95;1.75;;;8.30;99.90;;;;;;5011204;28;20042;-92
2022/02/02 08:14:28;;;;;;;6.55;2.25;;;8.40;99.90;;;;;;5000358;28;20026;-95
2022/02/02 08:16:54;;;;;;;7.95;2.45;;;8.30;99.90;;;;;;4993223;28;20050;-95
2022/02/02 08:19:21;;;;;;;3.60;2.10;;;8.40;99.90;;;;;;4984365;28;20039;-92
2022/02/02 08:21:47;;;;;;;7.25;2.88;;;8.40;99.90;;;;;;4995603;28;20053;-92
2022/02/02 08:24:14;;;;;;;6.60;2.63;;;8.30;99.90;;;;;;4983601;28;20057;-93
2022/02/02 08:26:40;;;;;;;6.82;2.05;;;8.40;99.90;;;;;;4989782;28;20226;-94
2022/02/02 08:29:08;;;;;;;9.30;3.03;;;8.40;99.90;;;;;;5000245;28;20056;-96
2022/02/02 08:31:35;;;;;;;8.52;2.80;;;8.40;99.90;;;;;;4983568;28;20031;-94
2022/02/02 08:34:08;;;;;;;9.73;4.15;;;8.40;99.90;;;;;;4977287;28;20030;-92
2022/02/02 08:36:34;;;;;;;14.45;4.03;;;8.40;99.90;;;;;;4996461;28;20034;-93
2022/02/02 08:39:14;;;;;;;20.02;4.78;;;8.40;99.90;;;;;;4996386;28;20045;-93
2022/02/02 08:41:47;;;;;;;13.27;4.70;;;8.40;99.90;;;;;;4996484;28;20086;-93
2022/02/02 08:44:19;;;;;;;10.68;3.83;;;8.40;99.90;;;;;;4994799;28;20037;-94
2022/02/02 08:46:58;;;;;;;9.95;4.25;;;8.40;99.90;;;;;;4995902;28;20644;-94
2022/02/02 08:49:24;;;;;;;15.45;4.57;;;8.40;99.90;;;;;;4995641;28;20031;-94
2022/02/02 08:51:50;;;;;;;21.45;4.70;;;8.40;99.90;;;;;;4994181;28;20101;-93
2022/02/02 08:54:32;;;;;;;13.15;4.72;;;8.40;99.90;;;;;;5010270;28;20100;-92
2022/02/02 09:02:13;;;;;;;15.02;4.78;;;8.40;99.90;;;;;;5001776;28;20050;-96
2022/02/02 09:07:23;;;;;;;21.95;5.45;;;8.40;99.90;;;;;;5004012;28;20554;-93
2022/02/02 09:20:01;;;;;;;12.68;4.72;;;8.40;99.90;;;;;;5000389;28;20046;-92
2022/02/02 09:21:47;;;;;;;12.70;5.78;;;8.40;99.90;;;;;;5002137;28;20489;-93
2022/02/02 09:32:14;;;;;;;16.10;5.03;;;8.50;99.90;;;;;;5003563;28;20159;-94
2022/02/02 09:34:33;;;;;;;11.43;3.15;;;8.50;99.90;;;;;;5001333;28;20500;-94
2022/02/02 09:36:59;;;;;;;15.57;4.05;;;8.60;99.90;;;;;;5006143;28;20061;-94
2022/02/02 09:39:32;;;;;;;14.63;3.03;;;8.50;99.90;;;;;;5017133;28;20068;-93
2022/02/02 09:42:33;;;;;;;7.95;2.67;;;8.60;99.90;;;;;;5004067;28;20029;-92
2022/02/02 09:44:55;;;;;;;5.38;2.85;;;8.60;99.90;;;;;;4996369;28;20125;-94
2022/02/02 09:47:27;;;;;;;7.57;2.87;;;8.60;99.90;;;;;;5004137;28;20095;-94
2022/02/02 09:52:21;;;;;;;7.60;3.35;;;8.60;99.90;;;;;;5003734;28;20040;-92
2022/02/02 10:05:47;;;;;;;7.50;1.83;;;8.70;99.90;;;;;;4996269;28;20034;-93
2022/02/02 10:13:36;;;;;;;5.88;1.60;;;8.60;99.90;;;;;;4995601;28;20101;-90
2022/02/02 10:16:02;;;;;;;8.73;2.40;;;8.60;99.90;;;;;;5001368;28;20042;-92
2022/02/02 10:18:32;;;;;;;7.55;2.25;;;8.60;99.90;;;;;;4999940;28;20045;-89
2022/02/02 10:20:59;;;;;;;12.38;2.83;;;8.60;99.90;;;;;;4997879;28;20018;-93
2022/02/02 10:23:25;;;;;;;10.57;2.47;;;8.60;99.90;;;;;;5021060;28;20044;-91
2022/02/02 10:25:57;;;;;;;6.10;2.30;;;8.60;99.90;;;;;;5004709;28;20037;-94
2022/02/02 10:28:31;;;;;;;15.20;3.45;;;8.60;99.90;;;;;;5004997;28;20049;-93
2022/02/02 10:31:05;;;;;;;11.80;3.38;;;8.60;99.90;;;;;;5004808;28;20129;-93
2022/02/02 10:33:32;;;;;;;13.18;3.92;;;8.60;99.90;;;;;;5005042;28;20062;-92
2022/02/02 10:36:08;;;;;;;17.65;3.47;;;8.60;99.90;;;;;;5003739;28;20052;-92
2022/02/02 10:38:49;;;;;;;12.43;2.70;;;8.60;99.90;;;;;;5004461;28;20618;-92
2022/02/02 10:41:30;;;;;;;15.18;3.03;;;8.70;99.90;;;;;;5018591;28;20038;-92
2022/02/02 10:43:59;;;;;;;9.60;3.53;;;8.70;99.90;;;;;;5021239;28;20031;-93
2022/02/02 10:49:11;;;;;;;12.95;3.28;;;8.70;99.90;;;;;;5008004;28;20586;-90
2022/02/02 10:54:29;;;;;;;9.90;3.58;;;8.70;99.90;;;;;;5004904;28;20042;-91
2022/02/02 10:58:03;;;;;;;9.55;3.58;;;8.80;99.90;;;;;;5004567;28;20027;-92
2022/02/02 11:07:49;;;;;;;9.60;3.05;;;8.80;99.90;;;;;;5004396;28;20553;-93
2022/02/02 11:10:16;;;;;;;12.18;2.30;;;8.80;99.90;;;;;;5013726;28;20380;-92
2022/02/02 11:12:48;;;;;;;8.65;2.58;;;8.80;99.90;;;;;;5004720;28;20030;-92
2022/02/02 11:15:44;;;;;;;13.52;3.30;;;8.80;99.90;;;;;;5000864;28;20033;-92
2022/02/02 11:18:24;;;;;;;16.98;3.47;;;8.80;99.90;;;;;;5002301;28;20046;-92
2022/02/02 11:20:52;;;;;;;11.80;3.65;;;8.80;99.90;;;;;;5002354;28;20027;-92
2022/02/02 11:23:19;;;;;;;10.98;3.10;;;8.70;99.90;;;;;;5003560;28;20022;-94
2022/02/02 11:25:51;;;;;;;11.30;2.78;;;8.70;99.90;;;;;;5004316;28;20033;-91
2022/02/02 11:28:29;;;;;;;10.27;2.53;;;8.70;99.90;;;;;;5002756;28;20022;-92
2022/02/02 11:31:18;;;;;;;13.32;3.67;;;8.70;99.90;;;;;;5008253;28;20018;-93
2022/02/02 11:33:59;;;;;;;11.57;2.83;;;8.70;99.90;;;;;;5013925;28;20054;-92
2022/02/02 11:36:29;;;;;;;9.95;2.80;;;8.70;99.90;;;;;;5016291;28;20379;-92
2022/02/02 11:38:56;;;;;;;8.45;2.78;;;8.70;99.90;;;;;;5007352;28;20060;-93
2022/02/02 11:44:27;;;;;;;10.25;2.35;;;8.80;99.90;;;;;;5005046;28;20574;-92
2022/02/02 11:49:47;;;;;;;9.25;2.40;;;8.80;99.90;;;;;;5005046;28;20029;-92
2022/02/02 11:53:02;;;;;;;15.93;3.38;;;8.80;99.90;;;;;;5012570;28;20018;-90
2022/02/02 11:55:31;;;;;;;9.15;3.03;;;8.80;99.90;;;;;;4986847;28;20041;-92
2022/02/02 11:58:00;;;;;;;10.10;2.47;;;8.70;99.90;;;;;;5009114;28;20121;-92
2022/02/02 12:00:44;;;;;;;6.20;2.40;;;8.80;99.90;;;;;;5002710;28;20026;-92
2022/02/02 12:03:36;;;;;;;10.68;2.60;;;8.80;99.90;;;;;;5004050;28;20026;-91
2022/02/02 12:57:40;;;;;;;20.98;4.90;;;8.80;99.90;;;;;;4995060;28;20038;-90
2022/02/02 13:00:11;;;;;;;12.45;4.97;;;8.80;99.90;;;;;;4994709;28;20480;-92
2022/02/02 13:02:39;;;;;;;25.77;6.15;;;8.80;99.90;;;;;;4993139;28;20030;-91
2022/02/02 13:05:07;;;;;;;18.13;4.47;;;8.90;99.90;;;;;;4973410;28;20043;-92
2022/02/02 13:07:34;;;;;;;15.15;3.67;;;8.80;99.90;;;;;;4993442;28;20030;-91
2022/02/02 13:10:06;;;;;;;24.95;5.40;;;8.80;99.90;;;;;;4992084;28;20030;-92
2022/02/02 13:12:54;;;;;;;15.98;4.30;;;8.80;99.90;;;;;;4978477;28;20057;-91
2022/02/02 13:20:58;;;;;;;15.50;3.33;;;8.90;99.90;;;;;;4983899;28;20053;-92
2022/02/02 13:26:12;;;;;;;12.20;3.88;;;8.90;99.90;;;;;;4997433;28;20386;-92
2022/02/02 13:28:47;;;;;;;14.65;3.80;;;8.90;99.90;;;;;;4995473;28;20033;-90
2022/02/02 13:31:54;;;;;;;14.73;4.32;;;8.90;99.90;;;;;;4997468;28;20084;-93
2022/02/02 13:45:49;;;;;;;17.70;4.80;;;8.90;99.90;;;;;;4995711;28;20130;-93
2022/02/02 13:51:24;;;;;;;19.33;4.97;;;9.00;99.90;;;;;;4994889;28;20041;-92
2022/02/02 13:54:11;;;;;;;19.33;4.20;;;9.00;99.90;;;;;;4993127;28;20440;-93
2022/02/02 14:07:28;;;;;;;;;;;9.00;99.90;;;;;;4994308;28;20380;-93
2022/02/02 14:31:26;;;;;;;21.10;3.55;;;9.10;99.90;;;;;;5014141;28;20072;-90
2022/02/02 14:33:53;;;;;;;25.42;4.03;;;9.10;99.90;;;;;;5012819;28;20041;-92
2022/02/02 14:36:23;;;;;;;21.15;4.22;;;9.10;99.90;;;;;;5011707;28;20034;-92
2022/02/02 14:46:36;;;;;;;21.52;3.33;;;9.20;99.90;;;;;;4982395;28;20065;-91
2022/02/02 14:49:10;;;;;;;15.57;3.35;;;9.20;99.90;;;;;;4983443;28;20033;-92
2022/02/02 15:29:12;;;;;;;20.00;3.42;;;9.20;99.90;;;;;;4997535;28;20021;-92
2022/02/02 15:31:40;;;;;;;17.48;3.10;;;9.20;99.90;;;;;;4990621;28;20031;-90
2022/02/02 15:34:07;;;;;;;20.55;3.13;;;9.20;99.90;;;;;;4996238;28;20026;-90
2022/02/02 15:39:14;;;;;;;16.70;3.72;;;9.20;99.90;;;;;;4995500;28;20034;-90
2022/02/02 15:42:00;;;;;;;14.93;3.60;;;9.20;99.90;;;;;;4993622;28;20503;-92
2022/02/02 15:58:16;;;;;;;20.55;3.50;;;9.30;99.90;;;;;;4989315;28;20131;-91
2022/02/02 16:06:08;;;;;;;16.45;3.22;;;9.30;99.90;;;;;;4988379;28;20082;-91
2022/02/02 16:08:36;;;;;;;13.57;4.03;;;9.30;99.90;;;;;;4983592;28;20033;-92
2022/02/02 16:11:15;;;;;;;21.05;3.67;;;9.20;99.90;;;;;;4992680;28;20026;-92
2022/02/02 16:13:48;;;;;;;19.10;3.83;;;9.30;99.90;;;;;;4991775;28;20064;-92
2022/02/02 16:37:40;;;;;;;20.48;3.55;;;9.20;99.90;;;;;;4984158;28;20041;-92
2022/02/02 16:40:08;;;;;;;26.38;6.35;;;9.20;99.90;;;;;;4987976;28;20101;-91
2022/02/02 16:45:19;;;;;;;19.50;3.80;;;9.20;99.90;;;;;;4991605;28;20096;-92
2022/02/02 16:47:45;;;;;;;21.23;4.00;;;9.20;99.90;;;;;;4988050;28;20030;-92
2022/02/02 16:50:19;;;;;;;32.63;5.28;;;9.20;99.90;;;;;;4978904;28;20031;-92
2022/02/02 16:52:49;;;;;;;21.48;3.90;;;9.20;99.90;;;;;;4987096;28;20045;-91
2022/02/02 16:55:32;;;;;;;30.27;4.55;;;9.20;99.90;;;;;;4987190;28;20049;-92
2022/02/02 16:58:23;;;;;;;23.08;6.00;;;9.20;99.90;;;;;;4989773;28;20041;-92
2022/02/02 17:30:55;;;;;;;19.33;6.20;;;9.40;99.90;;;;;;4995597;28;20399;-92
2022/02/02 17:33:39;;;;;;;17.33;4.80;;;9.40;99.90;;;;;;4973311;28;20039;-93
2022/02/02 17:36:19;;;;;;;17.02;5.28;;;9.30;99.90;;;;;;4977082;28;20364;-91
2022/02/02 17:44:18;;;;;;;22.33;5.15;;;9.20;99.90;;;;;;4996455;28;20023;-92
2022/02/02 18:19:27;;;;;;;26.08;9.68;;;9.20;99.90;;;;;;4995567;28;20049;-90
2022/02/02 18:21:53;;;;;;;24.02;8.05;;;9.20;99.90;;;;;;4977196;28;20328;-89
2022/02/02 18:24:35;;;;;;;19.73;8.20;;;9.20;99.90;;;;;;4977166;28;20041;-92
2022/02/02 18:27:09;;;;;;;36.47;11.13;;;9.20;99.90;;;;;;4979028;28;20033;-90
2022/02/02 18:29:50;;;;;;;20.90;7.78;;;9.10;99.90;;;;;;4981908;28;20042;-89
2022/02/02 18:35:03;;;;;;;23.15;6.95;;;9.20;99.90;;;;;;4991912;28;20126;-90
2022/02/02 18:53:48;;;;;;;29.42;7.45;;;9.10;99.90;;;;;;4993843;28;20045;-89
2022/02/02 19:07:15;;;;;;;26.98;7.72;;;8.80;99.90;;;;;;4990254;28;20377;-90
2022/02/02 19:40:44;;;;;;;28.90;8.98;;;8.60;99.90;;;;;;4996120;28;20476;-91
2022/02/02 19:56:52;;;;;;;31.52;11.98;;;8.50;99.90;;;;;;5006028;28;20129;-90
2022/02/02 20:02:29;;;;;;;46.50;15.23;;;8.50;99.90;;;;;;4993780;28;20458;-90
2022/02/02 20:05:19;;;;;;;41.00;15.52;;;8.50;99.90;;;;;;4977558;28;20027;-89
2022/02/02 20:08:01;;;;;;;46.80;20.00;;;8.40;99.90;;;;;;4983120;28;20027;-90
2022/02/02 20:10:34;;;;;;;40.08;19.77;;;8.50;99.90;;;;;;4982792;28;20042;-90
2022/02/02 20:13:00;;;;;;;40.72;21.20;;;8.50;99.90;;;;;;4980542;28;20027;-90
2022/02/02 20:15:32;;;;;;;42.72;21.75;;;8.50;99.90;;;;;;4978279;28;20030;-90
2022/02/02 20:18:01;;;;;;;45.20;21.15;;;8.40;99.90;;;;;;4977172;28;20054;-90
2022/02/02 20:20:27;;;;;;;31.00;13.70;;;8.50;99.90;;;;;;4996559;28;20039;-90
2022/02/02 20:22:53;;;;;;;38.80;20.80;;;8.50;99.90;;;;;;4979028;28;20018;-89
2022/02/02 20:25:19;;;;;;;58.20;21.75;;;8.40;99.90;;;;;;4995701;28;20038;-92
2022/02/02 20:28:01;;;;;;;53.40;21.98;;;8.50;99.90;;;;;;4979245;28;20022;-92
2022/02/02 20:30:27;;;;;;;51.47;23.23;;;8.50;99.90;;;;;;4979198;28;20121;-91
2022/02/02 20:32:53;;;;;;;42.67;21.05;;;8.40;99.90;;;;;;4979195;28;20119;-92
2022/02/02 20:35:22;;;;;;;45.05;21.25;;;8.40;99.90;;;;;;4979586;28;20503;-92
2022/02/02 20:37:51;;;;;;;41.92;19.08;;;8.40;99.90;;;;;;4995801;28;20050;-91
2022/02/02 20:40:17;;;;;;;32.28;17.48;;;8.50;99.90;;;;;;4978773;28;20034;-92
2022/02/02 20:42:56;;;;;;;38.03;17.17;;;8.40;99.90;;;;;;4979434;28;20041;-90
2022/02/02 21:09:59;;;;;;;22.55;8.23;;;8.40;99.90;;;;;;4975903;28;20038;-90
2022/02/02 21:15:32;;;;;;;18.60;7.90;;;8.50;99.90;;;;;;4971903;28;20041;-90
2022/02/02 21:18:09;;;;;;;24.10;10.15;;;8.50;99.90;;;;;;4961595;28;20519;-89
2022/02/02 21:20:52;;;;;;;21.23;8.68;;;8.50;99.90;;;;;;4971848;28;20039;-92
2022/02/02 21:26:11;;;;;;;20.73;7.20;;;8.40;99.90;;;;;;4972241;28;20089;-91
2022/02/02 21:28:37;;;;;;;22.48;9.07;;;8.40;99.90;;;;;;4972168;28;20034;-90
2022/02/02 21:31:04;;;;;;;21.45;6.68;;;8.50;99.90;;;;;;4956054;28;20027;-90
2022/02/02 21:33:31;;;;;;;22.65;6.78;;;8.50;99.90;;;;;;4959479;28;20023;-91
2022/02/02 21:35:58;;;;;;;14.27;5.80;;;8.50;99.90;;;;;;4962440;28;20022;-90
2022/02/02 21:38:33;;;;;;;14.90;5.60;;;8.50;99.90;;;;;;4977052;28;20046;-91
2022/02/02 21:41:00;;;;;;;19.80;7.20;;;8.50;99.90;;;;;;4977339;28;20031;-90
2022/02/02 21:43:30;;;;;;;16.20;5.95;;;8.50;99.90;;;;;;4976720;28;20562;-91
2022/02/02 21:45:57;;;;;;;19.55;5.88;;;8.50;99.90;;;;;;4978452;28;20130;-90
2022/02/02 21:48:27;;;;;;;18.67;6.05;;;8.60;99.90;;;;;;4979495;28;20038;-91
2022/02/02 21:51:01;;;;;;;19.20;5.95;;;8.60;99.90;;;;;;4975882;28;20084;-91
2022/02/02 21:53:27;;;;;;;16.50;5.50;;;8.60;99.90;;;;;;4995012;28;20089;-90
2022/02/02 21:55:56;;;;;;;16.23;4.22;;;8.60;99.90;;;;;;5003124;28;20403;-91
2022/02/02 21:58:24;;;;;;;15.63;4.80;;;8.60;99.90;;;;;;4982492;28;20442;-90
2022/02/02 22:00:51;;;;;;;15.32;4.70;;;8.50;99.90;;;;;;4976235;28;20027;-90
2022/02/02 22:03:19;;;;;;;19.88;4.07;;;8.50;99.90;;;;;;4975899;28;20412;-91
2022/02/02 22:05:45;;;;;;;15.50;4.53;;;8.50;99.90;;;;;;4973276;28;20023;-89
2022/02/02 22:08:11;;;;;;;19.08;4.93;;;8.50;99.90;;;;;;4976713;28;20416;-91
2022/02/02 22:10:38;;;;;;;23.50;4.75;;;8.40;99.90;;;;;;4985959;28;20108;-90
2022/02/02 22:13:05;;;;;;;14.77;3.55;;;8.40;99.90;;;;;;4975985;28;20026;-89
2022/02/02 22:15:40;;;;;;;17.85;5.22;;;8.40;99.90;;;;;;4976569;28;20061;-91
2022/02/02 22:18:06;;;;;;;15.93;3.60;;;8.40;99.90;;;;;;4976882;28;20131;-91
2022/02/02 22:20:35;;;;;;;10.65;3.75;;;8.30;99.90;;;;;;4976943;28;20037;-92
2022/02/02 22:23:01;;;;;;;14.13;3.53;;;8.40;99.90;;;;;;4976914;28;20038;-91
2022/02/02 22:25:27;;;;;;;9.80;2.90;;;8.30;99.90;;;;;;4976785;28;20030;-91
2022/02/02 22:27:53;;;;;;;11.98;2.65;;;8.30;99.90;;;;;;4976883;28;20030;-90
2022/02/02 22:30:22;;;;;;;18.88;3.50;;;8.30;99.90;;;;;;4976694;28;20395;-90
2022/02/02 22:32:48;;;;;;;12.38;3.92;;;8.30;99.90;;;;;;4976704;28;20054;-91
2022/02/02 22:35:15;;;;;;;12.50;2.75;;;8.30;99.90;;;;;;4976972;28;20034;-91
2022/02/02 22:37:40;;;;;;;11.50;2.97;;;8.30;99.90;;;;;;4976967;28;20026;-92
2022/02/02 22:40:09;;;;;;;11.77;2.60;;;8.30;99.90;;;;;;4992918;28;20058;-90
2022/02/02 22:42:38;;;;;;;11.65;2.92;;;8.30;99.90;;;;;;4976381;28;20026;-91
2022/02/02 22:45:06;;;;;;;10.45;2.80;;;8.20;99.90;;;;;;4976610;28;20034;-89
2022/02/02 22:47:32;;;;;;;9.52;3.42;;;8.20;99.90;;;;;;4991117;28;20113;-91
2022/02/02 22:50:04;;;;;;;13.07;2.95;;;8.20;99.90;;;;;;4957145;28;20037;-91
2022/02/02 22:52:30;;;;;;;15.98;3.65;;;8.20;99.90;;;;;;4973518;28;20026;-90
2022/02/02 22:54:57;;;;;;;12.98;3.65;;;8.20;99.90;;;;;;4976247;28;20117;-91
2022/02/02 22:57:22;;;;;;;12.63;2.47;;;8.20;99.90;;;;;;4976367;28;20026;-91
2022/02/02 22:59:52;;;;;;;11.75;2.85;;;8.20;99.90;;;;;;4976436;28;20090;-90
2022/02/02 23:05:03;;;;;;;13.82;3.28;;;8.10;99.90;;;;;;4998229;28;20400;-92
2022/02/02 23:07:29;;;;;;;11.40;3.03;;;8.10;99.90;;;;;;4979927;28;20054;-89
2022/02/02 23:09:57;;;;;;;15.00;3.13;;;8.10;99.90;;;;;;4978136;28;20060;-90
2022/02/02 23:12:25;;;;;;;14.70;3.58;;;8.10;99.90;;;;;;4996627;28;20034;-91
2022/02/02 23:14:52;;;;;;;13.40;3.10;;;8.10;99.90;;;;;;4996388;28;20027;-91
2022/02/02 23:17:29;;;;;;;12.18;3.20;;;8.00;99.90;;;;;;4980483;28;20046;-90
2022/02/02 23:19:54;;;;;;;8.38;3.30;;;8.00;99.90;;;;;;4996130;28;20035;-90
2022/02/02 23:22:25;;;;;;;13.68;3.28;;;8.00;99.90;;;;;;4980067;28;20113;-92
2022/02/02 23:24:54;;;;;;;;;;;8.00;99.90;;;;;;4980694;28;20646;-93
2022/02/02 23:27:21;;;;;;;12.43;2.80;;;8.00;99.90;;;;;;4980631;28;19931;-92
2022/02/02 23:29:50;;;;;;;11.50;3.05;;;8.00;99.90;;;;;;4979944;28;20157;-89
2022/02/02 23:32:19;;;;;;;11.75;3.03;;;8.00;99.90;;;;;;4979068;28;20476;-91
2022/02/02 23:34:47;;;;;;;14.40;3.65;;;8.00;99.90;;;;;;4983434;28;20086;-91
2022/02/02 23:37:13;;;;;;;12.85;3.20;;;8.00;99.90;;;;;;4961107;28;20032;-90
2022/02/02 23:39:42;;;;;;;12.13;3.20;;;8.00;99.90;;;;;;4960311;28;20078;-90
2022/02/02 23:42:20;;;;;;;8.90;3.00;;;7.90;99.90;;;;;;4960821;28;20018;-92
2022/02/02 23:44:48;;;;;;;12.88;2.92;;;7.90;99.90;;;;;;4962255;28;20030;-90
2022/02/02 23:47:20;;;;;;;11.90;3.08;;;7.90;99.90;;;;;;4963206;28;20379;-90
2022/02/02 23:49:53;;;;;;;10.13;2.90;;;7.90;99.90;;;;;;4960352;28;20030;-91
2022/02/02 23:52:33;;;;;;;15.82;3.08;;;7.90;99.90;;;;;;4960092;28;20489;-90
2022/02/02 23:55:04;;;;;;;16.65;2.97;;;7.90;99.90;;;;;;4963235;28;20320;-91
2022/02/02 23:57:49;;;;;;;9.85;2.75;;;7.90;99.90;;;;;;4979393;28;20030;-92
